^^
Grace C. Lehan Memorial Weather Station Historical Data
Daily Summary for April 5, 2021 Units:  English    Metric   Both
Daily Weekly Monthly Yearly
  High: Low: Average:
Temperature: 42.7 °F 26.1 °F 34.1 °F
Dew Point: 37.2 °F 22 °F 30.4 °F
Humidity: 96% 79% 86%
Wind Speed: 4.2mph 0mph 0.3mph
Wind Gust: 13mph - -
Wind- - SW
Pressure: 29.83 in 29.59 in -
Precipitation: 0.11 in    
 
 
Tabular Data for April 5, 2021
Time Temperature Dew Point Pressure Wind Wind Speed Wind Gust Humidity Rainfall Rate (Hourly) solar
00:04 27.4 °F 22.7 °F 29.83 in Calm     82.2% 0.00 in 0 W/m2
00:09 27.3 °F 22.8 °F 29.83 in Calm     82.7% 0.00 in 0 W/m2
00:14 27.2 °F 22.6 °F 29.83 in Calm     82.6% 0.00 in 0 W/m2
00:19 27.1 °F 22.6 °F 29.82 in Calm     83% 0.00 in 0 W/m2
00:24 27 °F 22.6 °F 29.82 in Calm     83% 0.00 in 0 W/m2
00:29 27 °F 22.5 °F 29.83 in Calm     83% 0.00 in 0 W/m2
00:34 26.6 °F 22.2 °F 29.83 in Calm     83% 0.00 in 0 W/m2
00:39 26.3 °F 22 °F 29.83 in Calm     83.3% 0.00 in 0 W/m2
00:44 26.2 °F 22.1 °F 29.83 in Calm     84.3% 0.00 in 0 W/m2
00:49 26.3 °F 22.4 °F 29.83 in Calm     85% 0.00 in 0 W/m2
00:54 26.3 °F 22.4 °F 29.83 in Calm     85% 0.00 in 0 W/m2
00:59 26.4 °F 22.5 °F 29.83 in Calm     85% 0.00 in 0 W/m2
01:04 26.5 °F 22.6 °F 29.83 in Calm     85% 0.00 in 0 W/m2
01:09 26.6 °F 22.7 °F 29.83 in Calm     85% 0.00 in 0 W/m2
01:14 26.6 °F 23.4 °F 29.83 in Calm     87.4% 0.00 in 0 W/m2
01:19 26.7 °F 22.8 °F 29.83 in Calm     85% 0.00 in 0 W/m2
01:24 26.8 °F 22.9 °F 29.82 in Calm     85% 0.00 in 0 W/m2
01:29 26.8 °F 22.9 °F 29.82 in Calm     85% 0.00 in 0 W/m2
01:34 26.8 °F 22.9 °F 29.81 in Calm     85% 0.00 in 0 W/m2
01:39 26.8 °F 22.9 °F 29.81 in Calm     85% 0.00 in 0 W/m2
01:44 26.8 °F 22.9 °F 29.81 in Calm     85% 0.00 in 0 W/m2
01:49 26.7 °F 22.9 °F 29.81 in Calm     85% 0.00 in 0 W/m2
01:54 26.7 °F 22.8 °F 29.81 in Calm     85% 0.00 in 0 W/m2
01:59 26.7 °F 22.8 °F 29.81 in Calm     85% 0.00 in 0 W/m2
02:04 26.6 °F 22.7 °F 29.82 in Calm     85% 0.00 in 0 W/m2
02:09 26.4 °F 22.5 °F 29.82 in Calm     85% 0.00 in 0 W/m2
02:14 26.3 °F 22.4 °F 29.82 in Calm     85% 0.00 in 0 W/m2
02:19 26.2 °F 22.3 °F 29.82 in Calm     85% 0.00 in 0 W/m2
02:24 26.1 °F 22.2 °F 29.81 in Calm     85% 0.00 in 0 W/m2
02:29 26.2 °F 22.5 °F 29.83 in Calm     86% 0.00 in 0 W/m2
02:34 26.2 °F 22.6 °F 29.83 in Calm     86% 0.00 in 0 W/m2
02:39 26.1 °F 22.5 °F 29.81 in Calm     86% 0.00 in 0 W/m2
02:44 26.1 °F 22.5 °F 29.82 in Calm     86% 0.00 in 0 W/m2
02:49 26.2 °F 22.6 °F 29.82 in Calm     86% 0.00 in 0 W/m2
02:54 26.2 °F 22.6 °F 29.82 in Calm     86% 0.00 in 0 W/m2
02:59 26.2 °F 22.6 °F 29.81 in Calm     86% 0.00 in 0 W/m2
03:04 26.3 °F 22.7 °F 29.81 in Calm     86% 0.00 in 0 W/m2
03:09 26.4 °F 22.8 °F 29.81 in Calm     86% 0.00 in 0 W/m2
03:14 26.6 °F 23.1 °F 29.81 in Calm     86.4% 0.00 in 0 W/m2
03:19 26.9 °F 23.3 °F 29.81 in Calm     86.1% 0.00 in 0 W/m2
03:24 27.1 °F 23.5 °F 29.81 in Calm     86% 0.00 in 0 W/m2
03:29 27.3 °F 23.7 °F 29.80 in Calm     86% 0.00 in 0 W/m2
03:34 27.4 °F 23.6 °F 29.80 in Calm     85.3% 0.00 in 0 W/m2
03:39 27.4 °F 23.5 °F 29.80 in Calm     85% 0.00 in 0 W/m2
03:44 27.4 °F 23.5 °F 29.80 in Calm     85% 0.00 in 0 W/m2
03:49 27.4 °F 23.4 °F 29.80 in Calm     84.7% 0.00 in 0 W/m2
03:54 27.2 °F 23 °F 29.80 in Calm     84% 0.00 in 0 W/m2
03:59 27 °F 22.8 °F 29.80 in Calm     84% 0.00 in 0 W/m2
04:00 26.9 °F 22.7 °F 29.80 in Calm     84% 0.00 in 0 W/m2
04:09 27 °F 23.1 °F 29.80 in Calm     85% 0.00 in 0 W/m2
04:14 27 °F 23.3 °F 29.80 in Calm     85.5% 0.00 in 0 W/m2
04:19 27.2 °F 23.6 °F 29.80 in Calm     86% 0.00 in 0 W/m2
04:24 27.3 °F 23.7 °F 29.79 in Calm     86% 0.00 in 0 W/m2
04:29 27.4 °F 23.8 °F 29.79 in Calm     86% 0.00 in 0 W/m2
04:34 27.5 °F 23.6 °F 29.79 in Calm     85% 0.00 in 0 W/m2
04:39 27.6 °F 23.7 °F 29.78 in Calm     85% 0.00 in 0 W/m2
04:44 27.7 °F 23.7 °F 29.78 in Calm     85% 0.00 in 0 W/m2
04:49 27.8 °F 23.8 °F 29.78 in Calm     85% 0.00 in 0 W/m2
04:54 27.9 °F 23.9 °F 29.78 in Calm     85% 0.00 in 0 W/m2
04:59 28 °F 24.1 °F 29.78 in Calm     85% 0.00 in 0 W/m2
05:04 28.1 °F 24.2 °F 29.77 in Calm     85% 0.00 in 0 W/m2
05:09 28.1 °F 24.2 °F 29.77 in Calm     85% 0.00 in 0 W/m2
05:14 28.2 °F 24.3 °F 29.77 in Calm     85% 0.00 in 0 W/m2
05:19 28.3 °F 24.4 °F 29.76 in Calm     85% 0.00 in 0 W/m2
05:24 28.3 °F 24.4 °F 29.75 in Calm     85% 0.00 in 0 W/m2
05:29 28.4 °F 24.5 °F 29.76 in Calm     85% 0.00 in 0 W/m2
05:34 28.4 °F 24.5 °F 29.77 in Calm     85% 0.00 in 0 W/m2
05:39 28.4 °F 24.5 °F 29.77 in Calm     85% 0.00 in 0 W/m2
05:44 28.4 °F 24.5 °F 29.77 in Calm     85% 0.00 in 0 W/m2
05:49 28.4 °F 24.5 °F 29.75 in Calm     85% 0.00 in 0 W/m2
05:54 28.5 °F 24.5 °F 29.76 in Calm     85% 0.00 in 0 W/m2
05:59 28.7 °F 24.7 °F 29.75 in Calm     85% 0.00 in 0 W/m2
06:04 28.8 °F 24.8 °F 29.75 in Calm     85% 0.00 in 0 W/m2
06:09 28.9 °F 24.9 °F 29.75 in Calm     85% 0.00 in 0 W/m2
06:14 28.9 °F 25 °F 29.75 in Calm     85% 0.00 in 0 W/m2
06:19 29 °F 24.9 °F 29.75 in Calm     84.4% 0.00 in 0 W/m2
06:24 29.1 °F 24.9 °F 29.75 in Calm     84% 0.00 in 0 W/m2
06:29 29.2 °F 25 °F 29.75 in Calm     84% 0.00 in 0 W/m2
06:34 29.2 °F 25 °F 29.74 in Calm     84% 0.00 in 0 W/m2
06:39 29.3 °F 25 °F 29.74 in Calm     84% 0.00 in 0 W/m2
06:44 29.3 °F 25.1 °F 29.74 in Calm     84% 0.00 in 0 W/m2
06:49 29.4 °F 25.2 °F 29.74 in Calm     84% 0.00 in 0 W/m2
06:54 29.5 °F 25.3 °F 29.74 in Calm     84% 0.00 in 0 W/m2
06:59 29.5 °F 25.3 °F 29.75 in Calm     84% 0.00 in 0 W/m2
07:04 29.6 °F 25.4 °F 29.75 in Calm     84% 0.00 in 0 W/m2
07:09 29.6 °F 25.4 °F 29.75 in Calm     84% 0.00 in 0 W/m2
07:14 29.7 °F 25.5 °F 29.75 in Calm     84% 0.00 in 7 W/m2
07:19 30 °F 26 °F 29.74 in Calm     84.9% 0.00 in 11 W/m2
07:24 30.2 °F 26.3 °F 29.73 in NW 0.3 mph 1 mph 85% 0.00 in 11 W/m2
07:29 30.5 °F 26.5 °F 29.72 in Calm   1 mph 85% 0.00 in 11 W/m2
07:34 30.6 °F 26.7 °F 29.73 in Calm   1 mph 85% 0.00 in 9 W/m2
07:39 30.7 °F 26.8 °F 29.73 in Calm     85% 0.00 in 11 W/m2
07:44 30.8 °F 26.8 °F 29.72 in Calm     85% 0.00 in 14 W/m2
07:49 30.9 °F 26.9 °F 29.73 in Calm     85% 0.00 in 18 W/m2
07:54 31 °F 27 °F 29.73 in Calm     85% 0.00 in 18 W/m2
07:59 31 °F 27 °F 29.74 in Calm     85% 0.00 in 14 W/m2
08:04 31 °F 27 °F 29.74 in Calm     85% 0.00 in 12 W/m2
08:09 31 °F 27 °F 29.74 in Calm     85% 0.00 in 18 W/m2
08:14 31 °F 27.1 °F 29.74 in Calm     85% 0.00 in 19 W/m2
08:19 31.1 °F 27.2 °F 29.74 in Calm     85% 0.00 in 25 W/m2
08:24 31.3 °F 27.4 °F 29.74 in Calm     85.2% 0.00 in 25 W/m2
08:29 31.5 °F 27.6 °F 29.74 in Calm     85.5% 0.00 in 37 W/m2
08:34 31.7 °F 27.7 °F 29.74 in Calm     85% 0.00 in 47 W/m2
08:39 31.9 °F 27.9 °F 29.73 in Calm     85% 0.00 in 44 W/m2
08:44 32.2 °F 28.2 °F 29.71 in Calm     85% 0.00 in 44 W/m2
08:49 32.4 °F 28.1 °F 29.71 in Calm     84.2% 0.00 in 33 W/m2
08:54 32.5 °F 28.2 °F 29.70 in Calm     84% 0.00 in 26 W/m2
08:59 32.6 °F 28.3 °F 29.70 in Calm     84% 0.00 in 19 W/m2
09:04 32.7 °F 28.4 °F 29.70 in Calm     84% 0.00 in 32 W/m2
09:09 32.8 °F 28.5 °F 29.70 in Calm     84% 0.00 in 37 W/m2
09:14 32.8 °F 28.5 °F 29.70 in Calm     84% 0.00 in 47 W/m2
09:19 32.9 °F 28.6 °F 29.70 in Calm     84% 0.00 in 74 W/m2
09:24 33.1 °F 28.8 °F 29.70 in Calm   2 mph 84% 0.00 in 134 W/m2
09:29 33.4 °F 29.3 °F 29.69 in NW 0.4 mph 2 mph 84.6% 0.00 in 134 W/m2
09:34 34.1 °F 30.2 °F 29.69 in NW 1 mph 3 mph 85.6% 0.00 in 114 W/m2
09:39 34.8 °F 31 °F 29.69 in WNW 1.2 mph 4 mph 85.8% 0.00 in 98 W/m2
09:44 35.6 °F 31.6 °F 29.69 in South 2 mph 4 mph 85% 0.00 in 149 W/m2
09:49 36.6 °F 32.4 °F 29.69 in South 3.1 mph 6 mph 84.5% 0.00 in 134 W/m2
09:54 37.6 °F 33.2 °F 29.68 in SSW 3.3 mph 11 mph 84% 0.00 in 102 W/m2
09:59 38.4 °F 33.9 °F 29.68 in SSW 4.2 mph 12 mph 83.5% 0.00 in 123 W/m2
10:04 39 °F 34.4 °F 29.68 in South 2.4 mph 13 mph 83.3% 0.00 in 121 W/m2
10:09 39.5 °F 35 °F 29.68 in South 2.6 mph 13 mph 84% 0.00 in 83 W/m2
10:14 39.7 °F 35.3 °F 29.68 in South 2.9 mph 13 mph 84% 0.00 in 54 W/m2
10:19 39.8 °F 35.7 °F 29.67 in South 3.2 mph 13 mph 85% 0.00 in 70 W/m2
10:24 40 °F 35.8 °F 29.67 in SSW 2.5 mph 13 mph 85% 0.00 in 77 W/m2
10:29 40 °F 35.9 °F 29.67 in South 1.4 mph 13 mph 85% 0.00 in 63 W/m2
10:34 40 °F 35.9 °F 29.67 in South 2.6 mph 13 mph 85.1% 0.00 in 69 W/m2
10:39 40.1 °F 36.3 °F 29.67 in South 2.1 mph 11 mph 86% 0.00 in 83 W/m2
10:44 40.1 °F 36.3 °F 29.67 in South 2.9 mph 11 mph 86% 0.00 in 77 W/m2
10:49 40.1 °F 36.3 °F 29.67 in South 1.9 mph 11 mph 86.2% 0.00 in 100 W/m2
10:54 40 °F 36.4 °F 29.66 in SSW 1.1 mph 11 mph 87% 0.00 in 97 W/m2
10:59 39.9 °F 36.4 °F 29.66 in South 2.4 mph 11 mph 87% 0.00 in 91 W/m2
11:04 39.8 °F 36.3 °F 29.66 in SSW 2.2 mph 11 mph 87.1% 0.00 in 93 W/m2
11:09 39.8 °F 36.5 °F 29.66 in South 0.9 mph 6 mph 88% 0.00 in 98 W/m2
11:14 39.8 °F 36.5 °F 29.66 in South 0.8 mph 6 mph 88% 0.00 in 120 W/m2
11:19 39.8 °F 36.5 °F 29.66 in South 0.2 mph 6 mph 88% 0.00 in 76 W/m2
11:24 39.8 °F 36.5 °F 29.66 in South 0.2 mph 6 mph 88% 0.00 in 53 W/m2
11:29 39.8 °F 36.5 °F 29.66 in South 0.3 mph 6 mph 88% 0.00 in 72 W/m2
11:34 39.7 °F 36.7 °F 29.66 in South 0.4 mph 6 mph 88.8% 0.00 in 77 W/m2
11:39 39.8 °F 36.8 °F 29.65 in SSW 0.1 mph 3 mph 89% 0.00 in 84 W/m2
11:44 39.8 °F 36.8 °F 29.65 in South 1.1 mph 7 mph 89% 0.00 in 79 W/m2
11:49 39.8 °F 36.8 °F 29.65 in South 0.2 mph 7 mph 89% 0.00 in 70 W/m2
11:54 39.8 °F 36.8 °F 29.64 in South 0.1 mph 7 mph 89% 0.00 in 81 W/m2
11:59 39.8 °F 37.1 °F 29.65 in Calm   7 mph 89.9% 0.00 in 69 W/m2
12:04 39.8 °F 37.1 °F 29.64 in South 2 mph 2 mph 90% 0.00 in 65 W/m2
12:09 39.9 °F 37.2 °F 29.64 in South 0.3 mph 3 mph 90% 0.01 in 84 W/m2
12:14 39.9 °F 37.2 °F 29.64 in South 0.2 mph 3 mph 90% 0.01 in 84 W/m2
12:19 39.9 °F 37.1 °F 29.64 in SSW 0.3 mph 3 mph 89.7% 0.01 in 88 W/m2
12:24 40 °F 37 °F 29.64 in Calm   3 mph 89% 0.01 in 98 W/m2
12:29 40 °F 37.2 °F 29.64 in Calm   3 mph 89.5% 0.01 in 109 W/m2
12:34 40.1 °F 37.1 °F 29.64 in Calm   3 mph 89% 0.01 in 81 W/m2
12:39 40.2 °F 37.2 °F 29.64 in SSW 0.2 mph 2 mph 89% 0.01 in 83 W/m2
12:44 40.2 °F 37.2 °F 29.63 in SSW 0.1 mph 3 mph 89% 0.01 in 77 W/m2
12:49 40.2 °F 37 °F 29.63 in SSW 0.3 mph 3 mph 88.1% 0.01 in 100 W/m2
12:54 40.3 °F 37 °F 29.63 in SSW 0.3 mph 3 mph 88% 0.01 in 90 W/m2
12:59 40.3 °F 37.1 °F 29.63 in SSW 0.4 mph 3 mph 88% 0.01 in 107 W/m2
13:04 40.4 °F 37 °F 29.63 in SSW 1.3 mph 5 mph 87.6% 0.01 in 105 W/m2
13:09 40.4 °F 36.9 °F 29.62 in SW 1.3 mph 5 mph 87% 0.00 in 137 W/m2
13:14 40.5 °F 36.9 °F 29.62 in SW 0.8 mph 7 mph 86.9% 0.00 in 116 W/m2
13:19 40.6 °F 36.8 °F 29.62 in Calm   7 mph 86% 0.00 in 109 W/m2
13:24 40.8 °F 36.9 °F 29.62 in SW 0.3 mph 7 mph 86% 0.00 in 104 W/m2
13:29 40.8 °F 37 °F 29.62 in SW 0.2 mph 7 mph 86% 0.01 in 118 W/m2
13:34 40.9 °F 36.8 °F 29.61 in SW 0.3 mph 7 mph 85.1% 0.01 in 127 W/m2
13:39 41 °F 36.9 °F 29.61 in WSW 0.8 mph 6 mph 85% 0.01 in 118 W/m2
13:44 41.1 °F 36.8 °F 29.61 in SW 1.4 mph 6 mph 84.5% 0.02 in 137 W/m2
13:49 41.2 °F 36.7 °F 29.61 in SW 1.2 mph 6 mph 84% 0.02 in 181 W/m2
13:54 41.3 °F 36.9 °F 29.61 in SW 0.6 mph 6 mph 84% 0.02 in 186 W/m2
13:59 41.5 °F 36.9 °F 29.61 in SW 0.3 mph 6 mph 83.7% 0.03 in 185 W/m2
14:04 41.6 °F 36.8 °F 29.61 in WSW 1 mph 9 mph 83% 0.03 in 160 W/m2
14:09 41.8 °F 36.8 °F 29.61 in West 0.2 mph 9 mph 82.2% 0.03 in 142 W/m2
14:14 41.8 °F 36.8 °F 29.61 in WSW 0.4 mph 9 mph 82% 0.04 in 118 W/m2
14:19 41.9 °F 36.8 °F 29.61 in WSW 0.4 mph 9 mph 82% 0.04 in 142 W/m2
14:24 41.9 °F 36.8 °F 29.61 in Calm   9 mph 82% 0.04 in 137 W/m2
14:29 41.9 °F 36.8 °F 29.61 in WSW 0.2 mph 9 mph 82% 0.05 in 146 W/m2
14:34 42 °F 36.7 °F 29.61 in WSW 0.1 mph 9 mph 81.4% 0.05 in 95 W/m2
14:39 42 °F 36.6 °F 29.61 in WSW 0.2 mph 2 mph 81% 0.04 in 105 W/m2
14:44 42 °F 36.6 °F 29.61 in WSW 0.1 mph 2 mph 81% 0.04 in 109 W/m2
14:49 42 °F 36.6 °F 29.61 in WSW 0.3 mph 2 mph 81% 0.05 in 141 W/m2
14:54 42 °F 36.6 °F 29.61 in WSW 0.3 mph 3 mph 81% 0.05 in 104 W/m2
14:59 42 °F 36.6 °F 29.61 in WSW 0.6 mph 3 mph 81% 0.05 in 128 W/m2
15:04 42 °F 36.6 °F 29.60 in WSW 0.4 mph 3 mph 81% 0.05 in 137 W/m2
15:09 42 °F 36.6 °F 29.61 in WSW 0.6 mph 5 mph 81% 0.04 in 137 W/m2
15:14 42 °F 36.6 °F 29.61 in WSW 0.8 mph 5 mph 81% 0.04 in 155 W/m2
15:19 42.1 °F 36.7 °F 29.61 in WSW 0.1 mph 5 mph 81% 0.04 in 151 W/m2
15:24 42.2 °F 36.7 °F 29.61 in WSW 0.4 mph 5 mph 80.6% 0.04 in 149 W/m2
15:29 42.4 °F 36.7 °F 29.60 in WSW 0.3 mph 5 mph 80% 0.05 in 153 W/m2
15:34 42.5 °F 36.8 °F 29.60 in WSW 0.2 mph 5 mph 80% 0.05 in 151 W/m2
15:39 42.7 °F 36.6 °F 29.60 in WSW 0.1 mph 2 mph 79% 0.03 in 72 W/m2
15:44 42.7 °F 36.6 °F 29.60 in Calm   2 mph 79% 0.03 in 83 W/m2
15:49 42.5 °F 36.5 °F 29.60 in WSW 0.8 mph 4 mph 79% 0.04 in 76 W/m2
15:54 42.3 °F 36.3 °F 29.60 in WSW 0.4 mph 4 mph 79% 0.04 in 72 W/m2
15:59 42.2 °F 36.2 °F 29.60 in Calm   4 mph 79% 0.04 in 70 W/m2
16:00 42.2 °F 36.2 °F 29.59 in Calm   4 mph 79% 0.04 in 60 W/m2
16:09 42.1 °F 36.1 °F 29.59 in Calm     79% 0.03 in 53 W/m2
16:14 42 °F 36.1 °F 29.59 in Calm   1 mph 79.3% 0.03 in 53 W/m2
16:19 42 °F 36.3 °F 29.59 in WSW 0.1 mph 2 mph 80% 0.03 in 54 W/m2
16:24 41.9 °F 36.2 °F 29.59 in Calm   2 mph 80% 0.03 in 53 W/m2
16:29 41.8 °F 36.1 °F 29.60 in Calm   2 mph 80% 0.03 in 44 W/m2
16:34 41.7 °F 36 °F 29.60 in Calm   2 mph 80% 0.03 in 44 W/m2
16:39 41.6 °F 36 °F 29.60 in Calm   1 mph 80.2% 0.02 in 44 W/m2
16:44 41.6 °F 36.1 °F 29.60 in WSW 0.1 mph 2 mph 80.8% 0.02 in 40 W/m2
16:49 41.5 °F 36.1 °F 29.60 in Calm   2 mph 81% 0.02 in 30 W/m2
16:54 41.4 °F 36 °F 29.60 in Calm   2 mph 81% 0.02 in 21 W/m2
16:59 41.3 °F 35.9 °F 29.60 in Calm   2 mph 81% 0.02 in 11 W/m2
17:04 41.1 °F 35.8 °F 29.60 in Calm   2 mph 81% 0.02 in 7 W/m2
17:09 40.9 °F 35.6 °F 29.60 in Calm     81% 0.01 in 5 W/m2
17:14 40.7 °F 35.3 °F 29.60 in Calm     81% 0.01 in 0 W/m2
17:19 40.5 °F 35.4 °F 29.60 in Calm     81.8% 0.01 in 0 W/m2
17:24 40.3 °F 35.2 °F 29.60 in Calm     82% 0.01 in 0 W/m2
17:29 40 °F 35 °F 29.59 in Calm     82% 0.01 in 0 W/m2
17:34 39.8 °F 35 °F 29.60 in Calm     82.7% 0.01 in 0 W/m2
17:39 39.6 °F 34.9 °F 29.60 in Calm     83% 0.01 in 0 W/m2
17:44 39.4 °F 34.9 °F 29.60 in Calm     83.8% 0.01 in 0 W/m2
17:49 39.2 °F 34.8 °F 29.60 in Calm     84% 0.01 in 0 W/m2
17:54 39 °F 34.5 °F 29.61 in Calm     84% 0.01 in 0 W/m2
17:59 38.7 °F 34.3 °F 29.60 in Calm     84% 0.01 in 0 W/m2
18:04 38.5 °F 34.1 °F 29.61 in Calm     84% 0.01 in 0 W/m2
18:09 38.3 °F 34.1 °F 29.61 in Calm     84.7% 0.00 in 0 W/m2
18:14 38.1 °F 34 °F 29.61 in Calm     85% 0.00 in 0 W/m2
18:19 37.9 °F 33.8 °F 29.61 in Calm     85% 0.00 in 0 W/m2
18:24 37.7 °F 33.7 °F 29.61 in Calm     85.5% 0.00 in 0 W/m2
18:29 37.4 °F 33.6 °F 29.61 in Calm     86% 0.00 in 0 W/m2
18:34 37.2 °F 33.4 °F 29.62 in Calm     86% 0.00 in 0 W/m2
18:39 37 °F 33.2 °F 29.62 in Calm     86% 0.00 in 0 W/m2
18:44 36.7 °F 32.9 °F 29.62 in Calm     86% 0.00 in 0 W/m2
18:49 36.4 °F 32.8 °F 29.61 in Calm     86.6% 0.00 in 0 W/m2
18:54 36.2 °F 32.7 °F 29.61 in Calm     87% 0.00 in 0 W/m2
18:59 36.1 °F 32.7 °F 29.62 in Calm     87.3% 0.00 in 0 W/m2
19:04 36 °F 32.8 °F 29.62 in Calm     88% 0.00 in 0 W/m2
19:09 35.8 °F 32.6 °F 29.62 in Calm     88% 0.00 in 0 W/m2
19:14 35.6 °F 32.4 °F 29.62 in Calm     88% 0.00 in 0 W/m2
19:19 35.5 °F 32.5 °F 29.62 in Calm     88.7% 0.00 in 0 W/m2
19:24 35.3 °F 32.4 °F 29.63 in Calm     89% 0.00 in 0 W/m2
19:29 35.2 °F 32.3 °F 29.63 in Calm     89% 0.00 in 0 W/m2
19:34 35.1 °F 32.2 °F 29.64 in Calm     89% 0.00 in 0 W/m2
19:39 35 °F 32.1 °F 29.64 in Calm     89% 0.00 in 0 W/m2
19:44 34.9 °F 32 °F 29.64 in Calm     89% 0.00 in 0 W/m2
19:49 34.7 °F 31.8 °F 29.64 in Calm     89% 0.00 in 0 W/m2
19:54 34.5 °F 31.8 °F 29.64 in Calm     89.6% 0.00 in 0 W/m2
19:59 34.4 °F 31.8 °F 29.64 in Calm     90% 0.00 in 0 W/m2
20:00 34.4 °F 31.8 °F 29.63 in Calm     90% 0.00 in 0 W/m2
20:09 34.3 °F 32 °F 29.63 in Calm     91% 0.00 in 0 W/m2
20:14 34.2 °F 31.8 °F 29.63 in Calm     90.8% 0.00 in 0 W/m2
20:19 34.2 °F 31.8 °F 29.63 in Calm     91% 0.00 in 0 W/m2
20:24 34.1 °F 31.8 °F 29.63 in Calm     91% 0.00 in 0 W/m2
20:29 34 °F 31.7 °F 29.63 in Calm     91% 0.00 in 0 W/m2
20:34 34 °F 31.6 °F 29.63 in Calm     91% 0.00 in 0 W/m2
20:39 33.8 °F 31.5 °F 29.63 in Calm     91% 0.00 in 0 W/m2
20:44 33.6 °F 31.3 °F 29.63 in Calm     91% 0.00 in 0 W/m2
20:49 33.4 °F 31 °F 29.63 in Calm     91% 0.00 in 0 W/m2
20:54 33.2 °F 30.9 °F 29.62 in Calm     91.1% 0.00 in 0 W/m2
20:59 33.4 °F 31.3 °F 29.62 in Calm     92% 0.00 in 0 W/m2
21:04 33.4 °F 31.4 °F 29.62 in Calm     92% 0.00 in 0 W/m2
21:09 33.6 °F 31.7 °F 29.62 in Calm     92.5% 0.00 in 0 W/m2
21:14 33.7 °F 31.9 °F 29.63 in Calm     93% 0.00 in 0 W/m2
21:19 33.7 °F 31.8 °F 29.63 in Calm     92.7% 0.00 in 0 W/m2
21:24 33.5 °F 31.4 °F 29.64 in Calm     92% 0.00 in 0 W/m2
21:29 33.3 °F 31.2 °F 29.64 in Calm     92% 0.00 in 0 W/m2
21:34 33.1 °F 31 °F 29.64 in Calm     92% 0.00 in 0 W/m2
21:39 33 °F 30.9 °F 29.64 in Calm     92% 0.00 in 0 W/m2
21:44 33 °F 31.1 °F 29.64 in Calm     92.5% 0.00 in 0 W/m2
21:49 33 °F 31.2 °F 29.64 in Calm     93% 0.00 in 0 W/m2
21:54 33 °F 31.2 °F 29.64 in Calm     93% 0.00 in 0 W/m2
21:59 32.9 °F 31.1 °F 29.65 in Calm     93% 0.00 in 0 W/m2
22:04 33 °F 31.2 °F 29.65 in Calm     93% 0.00 in 0 W/m2
22:09 33 °F 31.2 °F 29.65 in Calm     93% 0.00 in 0 W/m2
22:14 33 °F 31.2 °F 29.65 in Calm     93% 0.00 in 0 W/m2
22:19 33 °F 31.2 °F 29.65 in Calm     93% 0.00 in 0 W/m2
22:24 32.9 °F 31.1 °F 29.66 in Calm   1 mph 93% 0.00 in 0 W/m2
22:29 32.6 °F 30.8 °F 29.67 in Calm   1 mph 93% 0.00 in 0 W/m2
22:34 32.3 °F 30.5 °F 29.67 in Calm   1 mph 93% 0.00 in 0 W/m2
22:39 32.1 °F 30.3 °F 29.67 in Calm     93% 0.00 in 0 W/m2
22:44 32 °F 30.2 °F 29.67 in Calm     93% 0.00 in 0 W/m2
22:49 31.8 °F 30 °F 29.67 in Calm     93% 0.00 in 0 W/m2
22:54 31.7 °F 29.9 °F 29.67 in Calm     93% 0.00 in 0 W/m2
22:58 31.6 °F 29.8 °F 29.67 in Calm     93% 0.00 in 0 W/m2
23:04 31.6 °F 29.8 °F 29.68 in Calm     93% 0.00 in 0 W/m2
23:09 31.6 °F 29.8 °F 29.68 in Calm     93% 0.00 in 0 W/m2
23:14 31.6 °F 29.8 °F 29.68 in Calm     93% 0.00 in 0 W/m2
23:19 31.7 °F 30.1 °F 29.69 in WSW 0.1 mph 2 mph 93.7% 0.00 in 0 W/m2
23:24 31.9 °F 30.4 °F 29.69 in WSW 0.9 mph 4 mph 94% 0.00 in 0 W/m2
23:29 32 °F 31 °F 29.69 in WSW 1.8 mph 6 mph 96% 0.00 in 0 W/m2
23:34 32.1 °F 30.6 °F 29.69 in WSW 2.1 mph 7 mph 94% 0.00 in 0 W/m2
23:39 32.3 °F 30.8 °F 29.69 in WSW 2.5 mph 9 mph 94% 0.00 in 0 W/m2
23:44 32.6 °F 31.1 °F 29.70 in WSW 2.4 mph 9 mph 93.9% 0.00 in 0 W/m2
23:49 33 °F 31.2 °F 29.70 in SW 3 mph 13 mph 92.9% 0.00 in 0 W/m2
23:54 33.5 °F 31.2 °F 29.70 in WSW 1.5 mph 13 mph 91.4% 0.00 in 0 W/m2
23:59 33.9 °F 31 °F 29.70 in WSW 2.4 mph 13 mph 89% 0.00 in 0 W/m2
Hartford County Weather
Compliments of Weather Underground - 2 mb